Flight Track Log - Related Links

Times and Time Zones

All times are in EDT time to prevent confusion due to time zone crossing. See the SWA631 flight status page for this flight to view local times or setup timezone preferences in your user account.

Time Position Orientation Groundspeed Altitude Reporting Facility
EDT Latitude Longitude Course Direction KTS MPH feet Rate Location/Type
Sat 07:25:13 PM 41.8333 -87.7667 267° West 250 288 3,000  Level Chicago TRACON
Sat 07:26:07 PM 41.8167 -87.8333 251° West 243 280 3,100 783 Climbing Chicago TRACON
Sat 07:27:08 PM 41.7667 -87.9000 225° Southwest 252 290 4,500 2,220 Climbing Chicago TRACON
Sat 07:28:14 PM 41.7272 -87.9844 238° Southwest 287 330 7,800 3,000 Climbing Chicago Center
Sat 07:29:16 PM 41.7742 -88.0792 304° West 309 356 10,900 2,927 Climbing Chicago Center
Sat 07:30:00 PM 41.7297 -88.6648 267° West  Level FlightAware Approximate
Sat 07:30:17 PM 41.7756 -88.2011 271° West 329 379 13,800  Level Chicago Center
Sat 07:31:18 PM 41.7764 -88.3239 271° West 332 382 16,000 1,366 Climbing Chicago Center
Sat 07:32:20 PM 41.7783 -88.4583 271° West 355 409 16,600 1,512 Climbing Chicago Center
Sat 07:33:21 PM 41.7811 -88.6114 271° West 408 470 19,100 2,488 Climbing Chicago Center
Sat 07:34:23 PM 41.7825 -88.7958 271° West 416 479 21,700 2,195 Climbing Chicago Center
Sat 07:35:24 PM 41.7836 -88.9556 271° West 429 494 23,600 1,805 Climbing Chicago Center
Sat 07:36:26 PM 41.7797 -89.1197 268° West 442 509 25,400 1,707 Climbing Chicago Center
Sat 07:37:27 PM 41.7658 -89.2864 264° West 453 521 27,100 1,525 Climbing Chicago Center
Sat 07:38:28 PM 41.7531 -89.4542 264° West 457 526 28,500 1,366 Climbing Chicago Center
Sat 07:39:30 PM 41.7397 -89.6453 265° West 468 539 29,900 1,463 Climbing Chicago Center
Sat 07:40:31 PM 41.7269 -89.8192 264° West 473 544 31,500 1,512 Climbing Chicago Center
Sat 07:41:33 PM 41.7150 -89.9928 265° West 471 542 33,000 1,268 Climbing Chicago Center
Sat 07:42:34 PM 41.7014 -90.1633 264° West 466 536 34,100 1,073 Climbing Chicago Center
Sat 07:43:36 PM 41.6858 -90.3397 263° West 479 551 35,200 927 Climbing Chicago Center
Sat 07:44:37 PM 41.6728 -90.5131 264° West 474 545 36,000 393 Climbing Chicago Center
Sat 07:45:38 PM 41.6578 -90.6883 264° West 470 541 36,000  Level Chicago Center
Sat 07:46:40 PM 41.6414 -90.8939 264° West 467 537 36,000  Level Chicago Center
Sat 07:47:41 PM 41.6261 -91.0656 263° West 468 539 36,000  Level Chicago Center
Sat 07:48:43 PM 41.6119 -91.2367 264° West 466 536 36,000  Level Chicago Center
Sat 07:49:44 PM 41.5975 -91.4075 264° West 466 536 36,000  Level Chicago Center
Sat 07:50:45 PM 41.5811 -91.5767 263° West 463 533 36,000  Level Chicago Center
Sat 07:51:47 PM 41.5658 -91.7447 263° West 461 531 36,000  Level Chicago Center
Sat 07:52:48 PM 41.5503 -91.9153 263° West 462 532 36,000  Level Chicago Center
Sat 07:53:50 PM 41.5339 -92.0817 263° West 459 528 36,000  Level Chicago Center
Sat 07:54:51 PM 41.5156 -92.2856 263° West 461 531 36,000  Level Chicago Center
Sat 07:55:53 PM 41.4986 -92.4536 262° West 460 529 36,000  Level Chicago Center
Sat 07:56:54 PM 41.4808 -92.6189 262° West 453 521 36,000  Level Chicago Center
Sat 07:57:23 PM 41.4747 -92.6894 263° West 457 526 36,000  Level Minneapolis Center
Sat 07:58:24 PM 41.4583 -92.8556 263° West 457 526 36,000  Level Minneapolis Center
Sat 07:59:25 PM 41.4375 -93.0558 262° West 458 527 36,000  Level Minneapolis Center
Sat 08:00:26 PM 41.4197 -93.2203 262° West 458 527 36,000  Level Minneapolis Center
Sat 08:01:28 PM 41.4011 -93.3869 262° West 458 527 36,000  Level Minneapolis Center
Sat 08:02:29 PM 41.3858 -93.5472 263° West 451 519 36,000  Level Minneapolis Center
Sat 08:03:30 PM 41.3686 -93.7089 262° West 446 513 36,000  Level Minneapolis Center
Sat 08:04:31 PM 41.3500 -93.8744 262° West 453 521 36,000  Level Minneapolis Center
Sat 08:05:32 PM 41.3322 -94.0375 262° West 451 519 36,000  Level Minneapolis Center
Sat 08:06:34 PM 41.3100 -94.2269 261° West 454 522 36,000  Level Minneapolis Center
Sat 08:07:35 PM 41.2922 -94.3919 262° West 452 520 36,000  Level Minneapolis Center
Sat 08:08:36 PM 41.2717 -94.5583 261° West 454 522 36,000  Level Minneapolis Center
Sat 08:09:37 PM 41.2536 -94.7250 262° West 454 522 36,000  Level Minneapolis Center
Sat 08:10:38 PM 41.2333 -94.8911 261° West 455 524 36,000 244 Level Minneapolis Center
Sat 08:11:40 PM 41.2128 -95.0569 261° West 455 524 36,500 927 Climbing Minneapolis Center
Sat 08:12:41 PM 41.1919 -95.2203 260° West 452 520 37,900 738 Climbing Minneapolis Center
Sat 08:13:42 PM 41.1725 -95.3811 261° West 445 512 38,000 49 Climbing Minneapolis Center
Sat 08:14:43 PM 41.1511 -95.5431 260° West 444 511 38,000  Level Minneapolis Center
Sat 08:15:44 PM 41.1283 -95.7247 261° West 444 511 38,000  Level Minneapolis Center
Sat 08:16:45 PM 41.1086 -95.8700 260° West 446 513 38,000  Level Minneapolis Center
Sat 08:17:47 PM 41.0836 -96.0689 261° West 449 517 38,000  Level Minneapolis Center
Sat 08:18:48 PM 41.0625 -96.2339 260° West 449 517 38,000  Level Minneapolis Center
Sat 08:19:50 PM 41.0403 -96.3961 260° West 446 513 38,000  Level Minneapolis Center
Sat 08:20:51 PM 41.0178 -96.5603 260° West 449 517 38,000  Level Minneapolis Center
Sat 08:21:52 PM 40.9956 -96.7233 260° West 450 518 38,000  Level Minneapolis Center
Sat 08:22:53 PM 40.9731 -96.8872 260° West 451 519 38,000  Level Minneapolis Center
Sat 08:23:55 PM 40.9500 -97.0514 260° West 452 520 38,000  Level Minneapolis Center
Sat 08:24:56 PM 40.9278 -97.2161 260° West 454 522 38,000  Level Minneapolis Center
Sat 08:25:57 PM 40.9014 -97.3911 259° West 454 522 38,000  Level Minneapolis Center
Sat 08:26:59 PM 40.8775 -97.5553 259° West 454 522 38,000 -49 Level Minneapolis Center
Sat 08:28:00 PM 40.8553 -97.7206 260° West 455 524 37,900 -541 Descending Minneapolis Center
Sat 08:29:01 PM 40.8311 -97.8844 259° West 454 522 36,900 -927 Descending Minneapolis Center
Sat 08:30:03 PM 40.8061 -98.0481 259° West 454 522 36,000 -439 Descending Minneapolis Center
Sat 08:31:04 PM 40.7819 -98.2083 259° West 448 516 36,000  Level Minneapolis Center
Sat 08:32:06 PM 40.7572 -98.3697 259° West 446 513 36,000  Level Minneapolis Center
Sat 08:33:07 PM 40.7331 -98.5333 259° West 449 517 36,000  Level Minneapolis Center
Sat 08:34:08 PM 40.7078 -98.6956 258° West 448 516 36,000  Level Minneapolis Center
Sat 08:35:10 PM 40.6772 -98.8922 258° West 452 520 36,000  Level Minneapolis Center
Sat 08:36:11 PM 40.6511 -99.0550 258° West 451 519 36,000  Level Minneapolis Center
Sat 08:37:13 PM 40.6264 -99.2142 258° West 445 512 36,000  Level Minneapolis Center
Sat 08:38:14 PM 40.6011 -99.3719 258° West 441 507 36,000  Level Minneapolis Center
Sat 08:39:15 PM 40.5753 -99.5289 258° West 439 505 36,000  Level Minneapolis Center
Sat 08:40:23 PM 40.5494 -99.6861 258° West 438 504 36,000  Level Denver Center
Sat 08:41:24 PM 40.5186 -99.8656 257° West 433 498 36,000  Level Denver Center
Sat 08:42:26 PM 40.4956 -100.0144 259° West 433 498 36,000  Level Denver Center
Sat 08:43:27 PM 40.4692 -100.1622 257° West 433 498 36,000  Level Denver Center
Sat 08:44:28 PM 40.4397 -100.3322 257° West 427 491 36,000  Level Denver Center
Sat 08:45:29 PM 40.4150 -100.4797 258° West 430 495 36,000  Level Denver Center
Sat 08:46:31 PM 40.3856 -100.6489 257° West 424 488 36,000  Level Denver Center
Sat 08:47:32 PM 40.3608 -100.7950 258° West 425 489 36,000  Level Denver Center
Sat 08:48:33 PM 40.3342 -100.9403 257° West 426 490 36,000  Level Denver Center
Sat 08:49:35 PM 40.3042 -101.1106 257° West 427 491 36,000  Level Denver Center
Sat 08:50:36 PM 40.2778 -101.2561 257° West 427 491 36,000  Level Denver Center
Sat 08:51:37 PM 40.2461 -101.3978 254° West 424 488 36,000  Level Denver Center
Sat 08:52:38 PM 40.2083 -101.5619 253° West 421 484 36,000  Level Denver Center
Sat 08:53:40 PM 40.1783 -101.7033 255° West 420 483 36,000  Level Denver Center
Sat 08:54:41 PM 40.1456 -101.8433 253° West 422 486 36,000  Level Denver Center
Sat 08:55:42 PM 40.1089 -102.0039 253° West 415 478 36,000  Level Denver Center
Sat 08:56:43 PM 40.0778 -102.1428 254° West 414 476 36,000  Level Denver Center
Sat 08:57:44 PM 40.0406 -102.3033 253° West 415 478 36,000  Level Denver Center
Sat 08:58:46 PM 40.0092 -102.4403 253° West 413 475 36,000  Level Denver Center
Sat 08:59:47 PM 39.9767 -102.5778 253° West 413 475 36,000  Level Denver Center
Sat 09:00:48 PM 39.9392 -102.7383 253° West 417 480 36,000  Level Denver Center
Sat 09:01:49 PM 39.9042 -102.8825 252° West 413 475 36,000  Level Denver Center
Sat 09:02:51 PM 39.8711 -103.0267 253° West 413 475 36,000  Level Denver Center
Sat 09:03:52 PM 39.8353 -103.1697 252° West 413 475 36,000  Level Denver Center
Sat 09:04:53 PM 39.8028 -103.3131 254° West 411 473 36,000  Level Denver Center
Sat 09:05:54 PM 39.7669 -103.4547 252° West 409 471 36,000  Level Denver Center
Sat 09:06:56 PM 39.7325 -103.5972 253° West 410 472 36,000  Level Denver Center
Sat 09:07:57 PM 39.6983 -103.7386 253° West 407 468 36,000  Level Denver Center
Sat 09:08:58 PM 39.6625 -103.8822 252° West 410 472 36,000  Level Denver Center
Sat 09:09:59 PM 39.6278 -104.0261 253° West 413 475 36,000  Level Denver Center
Sat 09:11:01 PM 39.5928 -104.1644 252° West 400 460 36,000  Level Denver Center
Sat 09:12:02 PM 39.5578 -104.3050 252° West 405 466 36,000  Level Denver Center
Sat 09:13:03 PM 39.5225 -104.4422 252° West 397 457 36,000  Level Denver Center
Sat 09:14:04 PM 39.4875 -104.5817 252° West 400 460 36,000  Level Denver Center
Sat 09:15:06 PM 39.4503 -104.7219 251° West 400 460 36,000  Level Denver Center
Sat 09:16:06 PM 39.4208 -104.8378 252° West 399 459 36,000  Level Denver Center
Sat 09:17:08 PM 39.3794 -104.9986 252° West 398 458 36,000  Level Denver Center
Sat 09:18:09 PM 39.3439 -105.1333 251° West 394 453 36,000  Level Denver Center
Sat 09:19:11 PM 39.3092 -105.2675 252° West 392 451 36,000  Level Denver Center
Sat 09:20:12 PM 39.2756 -105.3983 252° West 380 437 36,000  Level Denver Center
Sat 09:21:13 PM 39.2353 -105.5519 251° West 381 438 36,000  Level Denver Center
Sat 09:22:14 PM 39.1997 -105.6828 251° West 383 441 36,000  Level Denver Center
Sat 09:23:16 PM 39.1642 -105.8131 251° West 381 438 36,000  Level Denver Center
Sat 09:24:17 PM 39.1300 -105.9436 251° West 382 440 36,000  Level Denver Center
Sat 09:25:18 PM 39.0953 -106.0747 251° West 385 443 36,000  Level Denver Center
Sat 09:26:19 PM 39.0608 -106.2017 251° West 381 438 36,000  Level Denver Center
Sat 09:27:21 PM 39.0275 -106.3242 251° West 380 437 36,000  Level Denver Center
Sat 09:28:22 PM 38.9886 -106.4661 251° West 378 435 36,000  Level Denver Center
Sat 09:29:23 PM 38.9547 -106.5881 250° West 379 436 36,000  Level Denver Center
Sat 09:30:37 PM 38.9164 -106.7289 251° West 375 432 36,000  Level Denver Center
Sat 09:31:38 PM 38.8786 -106.8597 250° West 377 434 36,000  Level Denver Center
Sat 09:32:40 PM 38.8433 -106.9867 250° West 376 433 36,000  Level Denver Center
Sat 09:33:41 PM 38.8083 -107.1108 250° West 371 427 36,000  Level Denver Center
Sat 09:34:42 PM 38.7697 -107.2475 250° West 368 423 36,000  Level Denver Center
Sat 09:35:56 PM 38.7311 -107.3856 250° West 368 423 36,000  Level Denver Center
Sat 09:36:57 PM 38.6917 -107.5233 250° West 368 423 36,000  Level Denver Center
Sat 09:37:59 PM 38.6511 -107.6625 250° West 372 428 36,000  Level Denver Center
Sat 09:39:01 PM 38.6172 -107.7794 250° West 369 425 36,000  Level Denver Center
Sat 09:40:01 PM 38.5781 -107.9186 250° West 372 428 36,000  Level Denver Center
Sat 09:41:03 PM 38.5436 -108.0367 250° West 370 426 36,000  Level Denver Center
Sat 09:42:04 PM 38.5072 -108.1592 249° West 380 437 36,000  Level Denver Center
Sat 09:43:05 PM 38.4672 -108.2975 250° West 374 430 36,000  Level Denver Center
Sat 09:44:06 PM 38.4319 -108.4156 249° West 372 428 36,000  Level Denver Center
Sat 09:45:08 PM 38.3969 -108.5347 249° West 372 428 36,000  Level Denver Center
Sat 09:46:09 PM 38.3556 -108.6764 250° West 379 436 36,000  Level Denver Center
Sat 09:47:10 PM 38.3194 -108.7956 249° West 376 433 36,000  Level Denver Center
Sat 09:48:12 PM 38.2767 -108.9356 249° West 379 436 36,000  Level Denver Center
Sat 09:49:13 PM 38.2406 -109.0556 249° West 379 436 36,000  Level Denver Center
Sat 09:50:14 PM 38.2036 -109.1758 249° West 381 438 36,000  Level Denver Center
Sat 09:51:27 PM 38.1606 -109.3139 248° West 374 430 36,000  Level Denver Center
Sat 09:52:29 PM 38.1178 -109.4561 249° West 385 443 36,000  Level Denver Center
Sat 09:53:30 PM 38.0744 -109.5972 249° West 384 442 36,000  Level Denver Center
Sat 09:54:31 PM 38.0347 -109.7283 249° West 383 441 36,000  Level Denver Center
Sat 09:55:32 PM 37.9961 -109.8481 248° West 384 442 36,000  Level Denver Center
Sat 09:56:33 PM 37.9600 -109.9664 249° West 379 436 36,000  Level Denver Center
Sat 09:57:34 PM 37.9161 -110.1044 248° West 380 437 36,000  Level Denver Center
Sat 09:58:36 PM 37.8786 -110.2242 248° West 383 441 36,000  Level Denver Center
Sat 09:59:37 PM 37.8408 -110.3433 248° West 382 440 36,000  Level Denver Center
Sat 10:00:38 PM 37.7967 -110.4842 248° West 386 444 36,000  Level Denver Center
Sat 10:01:39 PM 37.7558 -110.6103 248° West 384 442 36,000  Level Denver Center
Sat 10:02:40 PM 37.7169 -110.7347 248° West 382 440 36,000  Level Denver Center
Sat 10:03:41 PM 37.6767 -110.8586 248° West 382 440 36,000  Level Denver Center
Sat 10:04:42 PM 37.6367 -110.9828 248° West 384 442 36,000  Level Denver Center
Sat 10:05:43 PM 37.5967 -111.1061 248° West 382 440 36,000  Level Denver Center
Sat 10:06:44 PM 37.5558 -111.2300 247° West 382 440 36,000  Level Denver Center
Sat 10:07:45 PM 37.5158 -111.3531 248° West 380 437 36,000  Level Denver Center
Sat 10:08:58 PM 37.4747 -111.4747 247° West 378 435 36,000  Level Denver Center
Sat 10:09:59 PM 37.4272 -111.6206 248° West 375 432 36,000  Level Denver Center
Sat 10:11:00 PM 37.3800 -111.7647 248° West 373 429 36,000  Level Denver Center
Sat 10:11:26 PM 37.3628 -111.8128 246° West 371 427 36,000  Level Los Angeles Center
Sat 10:12:28 PM 37.3217 -111.9336 247° West 374 430 36,000  Level Los Angeles Center
Sat 10:13:29 PM 37.2811 -112.0550 247° West 376 433 36,000  Level Los Angeles Center
Sat 10:14:30 PM 37.2408 -112.1775 248° West 378 435 36,000 -344 Level Los Angeles Center
Sat 10:15:31 PM 37.2147 -112.3031 255° West 387 445 35,300 -829 Descending Los Angeles Center
Sat 10:16:33 PM 37.2378 -112.4336 283° West 386 444 34,300 -976 Descending Los Angeles Center
Sat 10:17:34 PM 37.2608 -112.5636 283° West 383 441 33,300 -1,033 Descending Los Angeles Center
Sat 10:18:35 PM 37.2844 -112.6908 283° West 376 433 32,200 -1,033 Descending Los Angeles Center
Sat 10:19:36 PM 37.3069 -112.8169 283° West 370 426 31,200 -976 Descending Los Angeles Center
Sat 10:20:38 PM 37.3128 -112.9400 273° West 368 423 30,200 -780 Descending Los Angeles Center
Sat 10:21:39 PM 37.2469 -113.0344 229° Southwest 364 419 29,600 -885 Descending Los Angeles Center
Sat 10:22:40 PM 37.1736 -113.1508 232° Southwest 357 411 28,400 -1,082 Descending Los Angeles Center
Sat 10:23:41 PM 37.1119 -113.2475 231° Southwest 355 409 27,400 -1,022 Descending Los Angeles Center
Sat 10:24:55 PM 37.0400 -113.3606 231° Southwest 349 402 26,100 -1,022 Descending Los Angeles Center
Sat 10:25:56 PM 36.9794 -113.4550 231° Southwest 347 399 25,100 -934 Descending Los Angeles Center
Sat 10:26:57 PM 36.9194 -113.5494 232° Southwest 348 400 24,200 -537 Descending Los Angeles Center
Sat 10:27:59 PM 36.8600 -113.6436 232° Southwest 346 398 24,000 -98 Descending Los Angeles Center
Sat 10:29:00 PM 36.7997 -113.7358 231° Southwest 344 396 24,000 -49 Level Los Angeles Center
Sat 10:30:01 PM 36.7389 -113.8292 231° Southwest 347 399 23,900 -885 Descending Los Angeles Center
Sat 10:31:02 PM 36.6819 -113.9200 232° Southwest 339 390 22,200 -1,659 Descending Los Angeles Center
Sat 10:32:04 PM 36.6261 -114.0061 231° Southwest 327 376 20,500 -1,805 Descending Los Angeles Center
Sat 10:33:05 PM 36.5622 -114.1089 232° Southwest 317 365 18,500 -1,967 Descending Los Angeles Center
Sat 10:34:06 PM 36.5206 -114.2039 241° Southwest 313 360 16,500 -1,974 Descending Los Angeles Center
Sat 10:34:21 PM 36.5119 -114.2333 250° West 331 381 16,000 -1,672 Descending Los Angeles Center
Sat 10:35:07 PM 36.4772 -114.2975 236° Southwest 311 358 14,800 -1,653 Descending Los Angeles Center
Sat 10:35:59 PM 36.4417 -114.3833 243° Southwest 310 357 13,300 -1,540 Descending Los Angeles Center
Sat 10:37:00 PM 36.3994 -114.4756 240° Southwest 299 344 11,900 -1,180 Descending Los Angeles Center
Sat 10:38:01 PM 36.3211 -114.4833 185° South 293 337 10,900 -1,033 Descending Los Angeles Center
Sat 10:39:02 PM 36.2419 -114.4675 171° South 290 334 9,800 -1,134 Descending Los Angeles Center
Sat 10:40:08 PM 36.1581 -114.4508 171° South 274 315 8,500 -893 Descending Los Angeles Center
Sat 10:41:03 PM 36.0944 -114.4375 170° South 252 290 8,000 -273 Descending Los Angeles Center
Sat 10:41:58 PM 36.0567 -114.4717 216° Southwest 228 262 8,000  Level Los Angeles Center
Sat 10:42:16 PM 36.0531 -114.4808 244° Southwest 224 258 8,000  Level Los Angeles Center
Sat 10:43:05 PM 36.0614 -114.5608 277° West 233 268 8,000  Level Los Angeles Center
Sat 10:44:05 PM 36.0683 -114.6411 276° West 235 270 8,000  Level Los Angeles Center
Sat 10:45:06 PM 36.0753 -114.7211 276° West 238 274 8,000 -541 Level Los Angeles Center
Sat 10:46:07 PM 36.0728 -114.8072 268° West 237 273 6,900 -1,138 Descending Los Angeles Center
Sat 10:47:02 PM 36.0744 -114.8839 272° West 244 281 5,800 -1,200 Descending Los Angeles Center
Sat 10:47:22 PM 36.0753 -114.9042 273° West 240 276 5,400 -1,180 Descending Los Angeles Center
Sat 10:48:03 PM 36.0742 -114.9614 269° West 224 258 4,600 -1,180 Descending Los Angeles Center
Sat 10:48:23 PM 36.0733 -114.9808 267° West 234 269 4,200 -1,164 Descending Los Angeles Center
Sat 10:49:10 PM 36.0744 -115.0411 271° West 203 234 3,300 -968 Descending Los Angeles Center
Sat 10:49:25 PM 36.0742 -115.0500 268° West 220 253 3,200 -787 Descending Los Angeles Center
Sat 10:50:11 PM 36.0731 -115.0947 268° West 153 176 2,500 -787 Descending Los Angeles Center
Sat 10:50:26 PM 36.0739 -115.1008 280° West 180 207 2,400 -395 Descending Los Angeles Center
Sat 10:51:27 PM 36.0744 -115.1497 271° West 153 176 2,000 -393 Descending Los Angeles Center

Login

Don't have an account? Register now (free) for customized features, flight alerts, and more!